• Join FlightAware (Why Join?)
  • Login
  • US Flag 
07:18AM EDT


 

Airport Tracker/Info


-or-


 

Live Flight TrackerFlight Track Log ✈ AWE3794 ✈ 12-Jul-2013 ✈ KCLE - KPHL

Flight Track Log - Related Links

Times and Time Zones

All times are in EDT time to prevent confusion due to time zone crossing. See the AWE3794 flight status page for this flight to view local times or setup timezone preferences in your user account.

Time Position Orientation Groundspeed Altitude Reporting Facility
EDT Latitude Longitude Course Direction KTS MPH feet Rate Location/Type
09:42AM 41.4264 -81.7822 77° East 198 228 3,100  Level Cleveland Center
09:43AM 41.4231 -81.6936 93° East 237 273 5,100 1,980 Climbing Cleveland Center
09:44AM 41.1791 -81.3748 124° Southeast  Level FlightAware Approximate
09:44AM 41.3694 -81.6125 131° Southeast 250 288 7,500  Level Cleveland Center
09:45AM 41.1228 -81.2570 118° Southeast  Level FlightAware Approximate
09:45AM 41.3181 -81.5369 132° Southeast 261 300 9,300  Level Cleveland Center
09:46AM 41.0771 -81.1313 114° Southeast  Level FlightAware Approximate
09:46AM 41.2708 -81.4478 125° Southeast 274 315 10,600  Level Cleveland Center
09:47AM 41.2383 -81.3453 113° Southeast 293 337 12,700 1,980 Climbing Cleveland Center
09:48AM 41.2119 -81.2317 107° East 315 362 14,600 1,860 Climbing Cleveland Center
09:49AM 41.1833 -81.1156 108° East 327 376 16,400 1,620 Climbing Cleveland Center
09:50AM 41.1608 -81.0106 106° East 327 376 17,900 1,560 Climbing Cleveland Center
09:51AM 41.1236 -80.8892 112° Southeast 327 376 19,600 1,320 Climbing Cleveland Center
09:52AM 41.0822 -80.7786 116° Southeast 327 376 20,600 1,020 Climbing Cleveland Center
09:53AM 41.0386 -80.6631 117° Southeast 338 389 21,700 1,080 Climbing Cleveland Center
09:54AM 40.9928 -80.5472 118° Southeast 348 400 22,800 960 Climbing Cleveland Center
09:55AM 40.9489 -80.4292 116° Southeast 348 400 23,700 900 Climbing Cleveland Center
09:56AM 40.9006 -80.3083 118° Southeast 354 407 24,700 600 Climbing Cleveland Center
09:57AM 40.8544 -80.1933 118° Southeast 354 407 25,000 120 Climbing Cleveland Center
09:58AM 40.8103 -80.0839 118° Southeast 359 413 25,000  Level Cleveland Center
09:59AM 40.7639 -79.9525 115° Southeast 359 413 25,000  Level Cleveland Center
10:00AM 40.7172 -79.8325 117° Southeast 359 413 25,000  Level Cleveland Center
10:01AM 40.6706 -79.7153 118° Southeast 359 413 25,000  Level Cleveland Center
10:02AM 40.6236 -79.5956 117° Southeast 359 413 25,000  Level Cleveland Center
10:03AM 40.5747 -79.4789 119° Southeast 364 419 25,000  Level Cleveland Center
10:04AM 40.5442 -79.3481 107° East 364 419 25,000  Level Cleveland Center
10:05AM 40.5197 -79.2256 105° East 371 427 25,000  Level Cleveland Center
10:06AM 40.4994 -79.0869 101° East 377 434 25,000  Level Cleveland Center
10:07AM 40.4767 -78.9481 102° East 382 440 25,000  Level Cleveland Center
10:08AM 40.4536 -78.8122 103° East 382 440 25,000  Level Cleveland Center
10:09AM 40.4306 -78.6711 102° East 388 447 25,000  Level Cleveland Center
10:11AM 40.3886 -78.4264 103° East 404 465 25,000  Level New York Center
10:12AM 40.3681 -78.2906 101° East 394 453 25,000  Level New York Center
10:13AM 40.3453 -78.1544 102° East 389 448 25,000  Level New York Center
10:14AM 40.3219 -78.0267 103° East 378 435 25,000  Level New York Center
10:15AM 40.3094 -77.8892 97° East 373 429 25,000 -180 Level New York Center
10:16AM 40.3031 -77.7553 94° East 368 423 24,700 -1,440 Descending New York Center
10:17AM 40.2911 -77.6369 98° East 375 432 22,200 -2,580 Descending New York Center
10:18AM 40.2739 -77.5019 99° East 370 426 19,700 -2,460 Descending New York Center
10:19AM 40.2561 -77.3750 100° East 370 426 17,300 -2,520 Descending New York Center
10:20AM 40.2403 -77.2428 99° East 339 390 14,600 -2,100 Descending New York Center
10:21AM 40.2292 -77.1411 98° East 324 373 13,000 -840 Descending New York Center
10:22AM 40.2125 -77.0228 100° East 303 349 13,000  Level New York Center
10:23AM 40.2011 -76.9239 99° East 303 349 13,100  Climbing New York Center
10:24AM 40.1847 -76.7975 100° East 309 356 13,000 -720 Descending New York Center
10:25AM 40.1717 -76.6847 99° East 309 356 11,700 -1,380 Descending New York Center
10:26AM 40.1581 -76.5806 100° East 309 356 10,300 -840 Descending New York Center
10:27AM 40.1439 -76.4842 101° East 304 350 10,100 -180 Descending New York Center
10:28AM 40.1292 -76.3608 99° East 304 350 10,000 -60 Descending New York Center
10:29AM 40.1156 -76.2483 99° East 304 350 10,000 -60 Level New York Center
10:30AM 40.1081 -76.1419 95° East 299 344 9,900 -600 Descending New York Center
10:31AM 40.1036 -76.0519 94° East 286 329 8,900 -960 Descending New York Center
10:32AM 40.1142 -75.9578 82° East 271 312 8,000 -480 Descending New York Center
10:33AM 40.1653 -75.8856 47° Northeast 250 288 8,000  Level New York Center
10:34AM 40.2128 -75.7994 54° Northeast 265 305 8,000  Level New York Center
10:35AM 40.2414 -75.7089 67° East 270 311 8,000 -300 Level New York Center
10:36AM 40.2683 -75.6183 69° East 270 311 7,500 -540 Descending New York Center
10:37AM 40.2567 -75.5469 102° East 229 264 7,000 -900 Descending New York Center
10:38AM 40.1936 -75.5044 153° Southeast 206 237 5,800 -1,020 Descending New York Center
10:39AM 40.1447 -75.4739 154° Southeast 211 243 5,000 -360 Descending New York Center
10:40AM 40.0936 -75.5031 204° Southwest 194 223 5,100 -180 Climbing New York Center
10:41AM 40.0489 -75.5244 200° South 199 229 4,700 -600 Descending New York Center
10:42AM 40.0203 -75.4603 120° Southeast 137 158 4,000 -360 Descending New York Center
10:43AM 40.0017 -75.4047 114° Southeast 171 197 4,100  Climbing New York Center
10:44AM 39.9575 -75.3583 141° Southeast 178 205 4,100 -60 Level New York Center
10:45AM 39.8833 -75.3500 175° South 209 241 4,000 -120 Descending Philadelphia TRACON
10:46AM 39.8167 -75.3333 169° South 197 227 3,900 -540 Descending Philadelphia TRACON
10:47AM 39.7667 -75.3167 166° South 195 224 3,000 -480 Descending Philadelphia TRACON
10:48AM 39.7167 -75.3000 166° South 193 222 3,000 -480 Level Philadelphia TRACON
10:49AM 39.7167 -75.2500 90° East 166 191 2,100 -900 Descending Philadelphia TRACON